createdAt,value
2023-11-17T00:02:37.844Z,3.03
2023-11-17T00:05:24.302Z,3.08
2023-11-17T00:08:10.837Z,3.04
2023-11-17T00:10:57.228Z,2.93
2023-11-17T00:13:44.585Z,3.02
2023-11-17T00:16:31.938Z,2.93
2023-11-17T00:19:19.606Z,2.98
2023-11-17T00:22:06.110Z,2.80
2023-11-17T00:24:53.613Z,2.79
2023-11-17T00:27:40.356Z,2.60
2023-11-17T00:30:26.642Z,2.47
2023-11-17T00:33:13.896Z,2.42
2023-11-17T00:39:10.287Z,2.51
2023-11-17T00:41:58.260Z,2.52
2023-11-17T00:44:44.320Z,2.65
2023-11-17T00:47:32.648Z,2.65
2023-11-17T00:50:18.922Z,2.54
2023-11-17T00:53:06.968Z,2.47
2023-11-17T00:55:57.729Z,2.41
2023-11-17T00:58:45.629Z,2.44
2023-11-17T01:01:31.918Z,2.21
2023-11-17T01:04:21.345Z,2.30
2023-11-17T01:07:08.193Z,2.34
2023-11-17T01:09:54.873Z,2.43
2023-11-17T01:12:41.091Z,2.34
2023-11-17T01:15:28.913Z,2.21
2023-11-17T01:18:15.870Z,2.21
2023-11-17T01:21:04.030Z,2.25
2023-11-17T01:23:50.503Z,2.28
2023-11-17T01:26:36.595Z,2.37
2023-11-17T01:29:23.225Z,2.09
2023-11-17T01:32:11.749Z,2.19
2023-11-17T01:34:57.881Z,2.23
2023-11-17T01:37:45.345Z,2.28
2023-11-17T01:40:32.324Z,2.35
2023-11-17T01:43:19.582Z,2.30
2023-11-17T01:46:07.430Z,2.10
2023-11-17T01:48:54.307Z,1.90
2023-11-17T01:51:40.772Z,1.96
2023-11-17T01:54:26.992Z,2.15
2023-11-17T01:57:13.192Z,2.25
2023-11-17T02:00:00.147Z,2.28
2023-11-17T02:02:50.294Z,2.41
2023-11-17T02:05:39.465Z,2.45
2023-11-17T02:08:52.601Z,2.46
2023-11-17T02:11:45.664Z,2.48
2023-11-17T02:14:38.381Z,2.34
2023-11-17T02:17:29.835Z,2.27
2023-11-17T02:20:21.545Z,2.34
2023-11-17T02:23:16.499Z,2.37
2023-11-17T02:26:19.569Z,2.34
2023-11-17T02:29:29.048Z,2.31
2023-11-17T02:32:17.690Z,2.35
2023-11-17T02:35:04.323Z,2.36
2023-11-17T02:37:51.909Z,2.40
2023-11-17T02:40:39.582Z,2.45
2023-11-17T02:43:31.285Z,2.54
2023-11-17T02:46:21.481Z,2.54
2023-11-17T02:49:19.055Z,2.52
2023-11-17T02:52:16.262Z,2.47
2023-11-17T02:55:05.070Z,2.41
2023-11-17T02:57:55.557Z,2.42
2023-11-17T03:00:44.202Z,2.50
2023-11-17T03:03:36.028Z,2.53
2023-11-17T03:06:23.927Z,2.64
2023-11-17T03:09:10.272Z,2.63
2023-11-17T03:12:00.619Z,2.56
2023-11-17T03:14:47.178Z,2.46
2023-11-17T03:17:34.385Z,2.37
2023-11-17T03:20:21.832Z,2.27
2023-11-17T03:23:07.719Z,2.15
2023-11-17T03:25:58.825Z,2.10
2023-11-17T03:28:45.505Z,2.05
2023-11-17T03:31:31.536Z,2.05
2023-11-17T03:34:24.634Z,2.07
2023-11-17T03:37:14.353Z,1.92
2023-11-17T03:40:08.969Z,1.79
2023-11-17T03:42:56.898Z,1.73
2023-11-17T03:45:50.640Z,1.76
2023-11-17T03:48:37.273Z,1.84
2023-11-17T03:51:23.999Z,1.74
2023-11-17T03:54:10.606Z,1.68
2023-11-17T03:56:58.361Z,1.79
2023-11-17T03:59:47.738Z,1.81
2023-11-17T04:02:34.047Z,1.73
2023-11-17T04:05:20.523Z,1.69
2023-11-17T04:08:07.546Z,1.64
2023-11-17T04:10:53.412Z,1.58
2023-11-17T04:13:43.118Z,1.55
2023-11-17T04:16:29.389Z,1.52
2023-11-17T04:19:16.283Z,1.50
2023-11-17T04:22:02.357Z,1.48
2023-11-17T04:24:49.625Z,1.46
2023-11-17T04:27:36.984Z,1.38
2023-11-17T04:30:23.622Z,1.30
2023-11-17T04:33:10.626Z,1.37
2023-11-17T04:36:00.052Z,1.37
2023-11-17T04:38:46.224Z,1.34
2023-11-17T04:41:33.471Z,1.19
2023-11-17T04:44:19.845Z,1.12
2023-11-17T04:47:07.378Z,1.12
2023-11-17T04:49:53.281Z,1.23
2023-11-17T04:52:39.651Z,1.23
2023-11-17T04:55:25.769Z,1.26
2023-11-17T04:58:15.279Z,1.24
2023-11-17T05:01:01.661Z,1.23
2023-11-17T05:03:48.644Z,1.24
2023-11-17T05:06:37.577Z,1.25
2023-11-17T05:09:30.460Z,1.32
2023-11-17T05:12:16.689Z,1.39
2023-11-17T05:15:04.114Z,1.36
2023-11-17T05:17:51.071Z,1.33
2023-11-17T05:20:39.433Z,1.30
2023-11-17T05:23:26.002Z,1.23
2023-11-17T05:26:13.623Z,1.15
2023-11-17T05:28:59.926Z,1.13
2023-11-17T05:31:46.654Z,1.17
2023-11-17T05:34:34.911Z,1.18
2023-11-17T05:37:21.722Z,1.14
2023-11-17T05:40:08.733Z,1.14
2023-11-17T05:42:55.356Z,1.13
2023-11-17T05:45:41.714Z,1.07
2023-11-17T05:48:29.668Z,1.05
2023-11-17T05:51:16.421Z,1.05
2023-11-17T05:54:03.204Z,1.09
2023-11-17T05:56:50.544Z,1.09
2023-11-17T05:59:37.160Z,1.05
2023-11-17T06:02:23.477Z,1.03
2023-11-17T06:05:10.213Z,1.01
2023-11-17T06:07:56.153Z,0.96
2023-11-17T06:10:43.626Z,0.94
2023-11-17T06:13:29.867Z,0.98
2023-11-17T06:16:18.078Z,1.04
2023-11-17T06:19:06.233Z,0.99
2023-11-17T06:21:53.193Z,0.98
2023-11-17T06:24:39.842Z,1.01
2023-11-17T06:27:27.129Z,0.98
2023-11-17T06:30:13.825Z,0.90
2023-11-17T06:32:59.995Z,0.89
2023-11-17T06:35:46.186Z,0.98
2023-11-17T06:38:35.607Z,1.01
2023-11-17T06:41:22.058Z,1.03
2023-11-17T06:44:10.518Z,0.99
2023-11-17T06:46:57.356Z,1.01
2023-11-17T06:49:45.408Z,0.87
2023-11-17T06:52:31.884Z,0.78
2023-11-17T06:55:19.077Z,0.80
2023-11-17T06:58:05.864Z,0.82
2023-11-17T07:00:55.181Z,0.76
2023-11-17T07:03:45.125Z,0.70
2023-11-17T07:06:32.942Z,0.71
2023-11-17T07:09:24.651Z,0.71
2023-11-17T07:12:11.675Z,0.63
2023-11-17T07:15:00.505Z,0.59
2023-11-17T07:17:47.488Z,0.54
2023-11-17T07:20:34.515Z,0.58
2023-11-17T07:23:20.769Z,0.52
2023-11-17T07:26:18.922Z,0.50
2023-11-17T07:29:06.982Z,0.51
2023-11-17T07:31:53.265Z,0.54
2023-11-17T07:34:39.536Z,0.56
2023-11-17T07:37:26.005Z,0.41
2023-11-17T07:40:15.036Z,0.37
2023-11-17T07:43:01.348Z,0.35
2023-11-17T07:45:48.260Z,0.31
2023-11-17T07:48:41.749Z,0.28
2023-11-17T07:51:35.422Z,0.32
2023-11-17T07:54:26.679Z,0.28
2023-11-17T07:57:13.359Z,0.32
2023-11-17T07:59:59.560Z,0.32
2023-11-17T08:02:47.166Z,0.31
2023-11-17T08:05:33.491Z,0.27
2023-11-17T08:08:19.714Z,0.29
2023-11-17T08:11:06.188Z,0.40
2023-11-17T08:13:53.408Z,0.50
2023-11-17T08:16:39.802Z,0.53
2023-11-17T08:19:26.996Z,0.59
2023-11-17T08:22:12.756Z,0.49
2023-11-17T08:24:59.424Z,0.35
2023-11-17T08:27:47.545Z,0.37
2023-11-17T08:30:42.879Z,0.34
2023-11-17T08:33:36.511Z,0.32
2023-11-17T08:36:26.078Z,0.36
2023-11-17T08:39:26.834Z,0.37
2023-11-17T08:42:14.631Z,0.37
2023-11-17T08:45:08.671Z,0.42
2023-11-17T08:47:56.828Z,0.40
2023-11-17T08:50:43.385Z,0.30
2023-11-17T08:53:31.234Z,0.34
2023-11-17T08:56:19.041Z,0.33
2023-11-17T08:59:07.437Z,0.26
2023-11-17T09:01:54.565Z,0.16
2023-11-17T09:04:42.245Z,0.14
2023-11-17T09:07:30.761Z,0.06
2023-11-17T09:10:20.281Z,0.05
2023-11-17T09:13:06.416Z,0.15
2023-11-17T09:15:55.594Z,0.21
2023-11-17T09:18:42.139Z,0.27
2023-11-17T09:21:34.724Z,0.33
2023-11-17T09:24:21.567Z,0.31
2023-11-17T09:27:11.106Z,0.29
2023-11-17T09:29:57.524Z,0.25
2023-11-17T09:32:46.303Z,0.30
2023-11-17T09:35:33.767Z,0.33
2023-11-17T09:38:25.315Z,0.33
2023-11-17T09:41:17.659Z,0.18
2023-11-17T09:44:07.222Z,0.22
2023-11-17T09:47:05.585Z,0.36
2023-11-17T09:49:54.901Z,0.51
2023-11-17T09:52:45.845Z,0.59
2023-11-17T09:55:35.839Z,0.54
2023-11-17T09:58:22.385Z,0.57
2023-11-17T10:01:12.388Z,0.56
2023-11-17T10:04:00.542Z,0.54
2023-11-17T10:06:50.142Z,0.39
2023-11-17T10:09:39.915Z,0.36
2023-11-17T10:12:29.234Z,0.33
2023-11-17T10:15:25.759Z,0.41
2023-11-17T10:18:17.449Z,0.47
2023-11-17T10:21:05.532Z,0.50
2023-11-17T10:23:54.851Z,0.57
2023-11-17T10:26:41.241Z,0.61
2023-11-17T10:29:28.427Z,0.60
2023-11-17T10:32:36.267Z,0.55
2023-11-17T10:35:26.447Z,0.54
2023-11-17T10:38:17.050Z,0.61
2023-11-17T10:41:19.110Z,0.67
2023-11-17T10:44:09.634Z,0.73
2023-11-17T10:46:55.767Z,0.71
2023-11-17T10:49:42.212Z,0.77
2023-11-17T10:52:29.355Z,0.76
2023-11-17T10:55:17.127Z,0.67
2023-11-17T10:58:08.522Z,0.62
2023-11-17T11:00:57.617Z,0.72
2023-11-17T11:03:43.974Z,0.69
2023-11-17T11:06:30.999Z,0.72
2023-11-17T11:09:19.809Z,0.78
2023-11-17T11:12:09.831Z,0.76
2023-11-17T11:14:57.010Z,0.74
2023-11-17T11:18:17.132Z,0.74
2023-11-17T11:21:06.664Z,0.78
2023-11-17T11:23:57.177Z,0.77
2023-11-17T11:26:43.236Z,0.74
2023-11-17T11:29:31.314Z,0.75
2023-11-17T11:32:19.864Z,0.75
2023-11-17T11:35:06.448Z,0.78
2023-11-17T11:37:53.856Z,0.88
2023-11-17T11:40:44.102Z,0.98
2023-11-17T11:43:31.588Z,1.04
2023-11-17T11:46:20.748Z,1.04
2023-11-17T11:49:13.196Z,1.06
2023-11-17T11:52:10.985Z,1.11
2023-11-17T11:54:57.722Z,1.10
2023-11-17T11:57:58.826Z,1.12
2023-11-17T12:00:49.073Z,1.15
2023-11-17T12:03:36.764Z,1.20
2023-11-17T12:06:29.494Z,1.21
2023-11-17T12:09:23.368Z,1.17
2023-11-17T12:12:10.554Z,1.19
2023-11-17T12:14:58.991Z,1.29
2023-11-17T12:17:54.628Z,1.34
2023-11-17T12:20:41.260Z,1.20
2023-11-17T12:23:50.163Z,1.10
2023-11-17T12:26:40.506Z,1.09
2023-11-17T12:29:35.621Z,1.09
2023-11-17T12:32:22.770Z,1.04
2023-11-17T12:35:11.576Z,1.05
2023-11-17T12:37:57.932Z,1.06
2023-11-17T12:40:44.012Z,1.06
2023-11-17T12:43:32.549Z,1.13
2023-11-17T12:46:19.580Z,1.21
2023-11-17T12:49:10.497Z,1.27
2023-11-17T12:52:10.169Z,1.30
2023-11-17T12:55:08.827Z,1.21
2023-11-17T12:57:55.193Z,1.24
2023-11-17T13:00:41.725Z,1.21
2023-11-17T13:03:30.874Z,1.22
2023-11-17T13:06:38.851Z,1.12
2023-11-17T13:09:29.298Z,1.10
2023-11-17T13:12:16.102Z,1.12
2023-11-17T13:15:07.267Z,1.15
2023-11-17T13:17:54.229Z,1.15
2023-11-17T13:20:40.691Z,1.14
2023-11-17T13:23:28.996Z,1.16
2023-11-17T13:26:21.274Z,1.23
2023-11-17T13:29:15.748Z,1.22
2023-11-17T13:32:03.194Z,1.20
2023-11-17T13:34:56.564Z,1.17
2023-11-17T13:37:52.942Z,1.21
2023-11-17T13:40:43.571Z,1.20
2023-11-17T13:43:31.124Z,1.16
2023-11-17T13:46:21.313Z,1.18
2023-11-17T13:49:13.848Z,1.20
2023-11-17T13:52:06.307Z,1.24
2023-11-17T13:54:53.038Z,1.26
2023-11-17T13:57:39.564Z,1.28
2023-11-17T14:00:27.233Z,1.25
2023-11-17T14:03:14.291Z,1.21
2023-11-17T14:06:00.766Z,1.12
2023-11-17T14:08:47.451Z,1.12
2023-11-17T14:11:33.494Z,1.19
2023-11-17T14:14:20.732Z,1.24
2023-11-17T14:17:08.281Z,1.22
2023-11-17T14:19:58.955Z,1.22
2023-11-17T14:22:45.370Z,1.19
2023-11-17T14:25:33.006Z,1.21
2023-11-17T14:28:19.209Z,1.20
2023-11-17T14:31:09.438Z,1.18
2023-11-17T14:33:55.598Z,1.21
2023-11-17T14:36:42.586Z,1.23
2023-11-17T14:39:32.778Z,1.27
2023-11-17T14:42:21.172Z,1.26
2023-11-17T14:45:15.227Z,1.18
2023-11-17T14:48:05.100Z,1.18
2023-11-17T14:50:51.999Z,1.12
2023-11-17T14:53:38.497Z,1.14
2023-11-17T14:56:25.245Z,1.18
2023-11-17T14:59:11.784Z,1.28
2023-11-17T15:01:58.018Z,1.33
2023-11-17T15:04:44.915Z,1.27
2023-11-17T15:07:31.838Z,1.25
2023-11-17T15:10:21.114Z,1.15
2023-11-17T15:13:07.919Z,1.13
2023-11-17T15:15:54.736Z,1.16
2023-11-17T15:18:49.676Z,1.20
2023-11-17T15:21:39.247Z,1.21
2023-11-17T15:24:28.096Z,1.10
2023-11-17T15:27:16.760Z,1.09
2023-11-17T15:30:07.828Z,1.10
2023-11-17T15:32:55.931Z,1.13
2023-11-17T15:35:53.857Z,1.15
2023-11-17T15:38:44.336Z,1.23
2023-11-17T15:41:36.444Z,1.22
2023-11-17T15:44:24.898Z,1.26
2023-11-17T15:47:11.973Z,1.24
2023-11-17T15:50:04.403Z,1.21
2023-11-17T15:52:53.295Z,1.15
2023-11-17T15:55:39.682Z,1.07
2023-11-17T15:58:28.911Z,1.09
2023-11-17T16:01:23.897Z,1.09
2023-11-17T16:04:11.214Z,1.10
2023-11-17T16:06:57.820Z,1.08
2023-11-17T16:09:44.782Z,1.04
2023-11-17T16:12:30.676Z,1.03
2023-11-17T16:15:20.047Z,1.09
2023-11-17T16:18:06.494Z,1.11
2023-11-17T16:20:53.434Z,1.13
2023-11-17T16:23:40.223Z,1.22
2023-11-17T16:26:26.957Z,1.22
2023-11-17T16:29:14.298Z,1.20
2023-11-17T16:32:01.054Z,1.17
2023-11-17T16:34:49.288Z,1.18
2023-11-17T16:37:53.100Z,1.20
2023-11-17T16:40:45.429Z,1.20
2023-11-17T16:43:33.292Z,1.20
2023-11-17T16:46:21.990Z,1.23
2023-11-17T16:49:09.510Z,1.22
2023-11-17T16:51:56.188Z,1.21
2023-11-17T16:54:42.982Z,1.29
2023-11-17T16:57:29.494Z,1.32
2023-11-17T17:00:17.348Z,1.36
2023-11-17T17:03:08.182Z,1.36
2023-11-17T17:05:54.268Z,1.30
2023-11-17T17:08:41.598Z,1.30
2023-11-17T17:11:27.683Z,1.30
2023-11-17T17:14:20.436Z,1.26
2023-11-17T17:17:07.920Z,1.31
2023-11-17T17:19:55.126Z,1.31
2023-11-17T17:22:43.459Z,1.29
2023-11-17T17:25:30.275Z,1.28
2023-11-17T17:28:16.611Z,1.37
2023-11-17T17:31:04.215Z,1.38
2023-11-17T17:33:50.540Z,1.35
2023-11-17T17:36:36.561Z,1.33
2023-11-17T17:39:22.643Z,1.39
2023-11-17T17:42:09.530Z,1.36
2023-11-17T17:44:55.820Z,1.30
2023-11-17T17:47:42.323Z,1.31
2023-11-17T17:50:29.745Z,1.31
2023-11-17T17:53:18.427Z,1.29
2023-11-17T17:56:09.371Z,1.21
2023-11-17T17:58:56.720Z,1.17
2023-11-17T18:01:43.140Z,1.13
2023-11-17T18:04:29.322Z,1.09
2023-11-17T18:07:20.586Z,1.13
2023-11-17T18:10:10.634Z,1.23
2023-11-17T18:12:57.488Z,1.29
2023-11-17T18:15:44.023Z,1.30
2023-11-17T18:18:35.077Z,1.29
2023-11-17T18:21:21.295Z,1.35
2023-11-17T18:24:09.155Z,1.34
2023-11-17T18:27:00.608Z,1.20
2023-11-17T18:29:50.847Z,1.24
2023-11-17T18:32:39.282Z,1.33
2023-11-17T18:35:26.701Z,1.35
2023-11-17T18:38:12.968Z,1.28
2023-11-17T18:40:59.016Z,1.23
2023-11-17T18:43:45.471Z,1.20
2023-11-17T18:46:32.433Z,1.19
2023-11-17T18:49:19.103Z,1.17
2023-11-17T18:52:05.959Z,1.23
2023-11-17T18:54:54.536Z,1.21
2023-11-17T18:57:41.771Z,1.22
2023-11-17T19:00:29.454Z,1.28
2023-11-17T19:03:17.743Z,1.22
2023-11-17T19:06:04.141Z,1.23
2023-11-17T19:08:51.943Z,1.21
2023-11-17T19:11:39.563Z,1.26
2023-11-17T19:14:29.867Z,1.19
2023-11-17T19:17:17.059Z,1.22
2023-11-17T19:20:05.046Z,1.28
2023-11-17T19:22:51.668Z,1.34
2023-11-17T19:25:38.324Z,1.38
2023-11-17T19:28:24.782Z,1.44
2023-11-17T19:31:11.524Z,1.48
2023-11-17T19:33:58.653Z,1.46
2023-11-17T19:36:47.802Z,1.38
2023-11-17T19:39:41.949Z,1.29
2023-11-17T19:42:29.190Z,1.26
2023-11-17T19:45:21.384Z,1.32
2023-11-17T19:48:08.911Z,1.27
2023-11-17T19:50:55.174Z,1.31
2023-11-17T19:53:44.150Z,1.27
2023-11-17T19:56:31.513Z,1.19
2023-11-17T19:59:18.927Z,1.19
2023-11-17T20:02:06.619Z,1.20
2023-11-17T20:04:56.757Z,1.19
2023-11-17T20:07:46.914Z,1.23
2023-11-17T20:10:35.098Z,1.26
2023-11-17T20:13:22.618Z,1.32
2023-11-17T20:16:11.873Z,1.28
2023-11-17T20:18:58.372Z,1.26
2023-11-17T20:21:45.802Z,1.29
2023-11-17T20:24:31.697Z,1.31
2023-11-17T20:27:18.324Z,1.32
2023-11-17T20:30:05.054Z,1.32
2023-11-17T20:32:54.252Z,1.38
2023-11-17T20:35:41.487Z,1.41
2023-11-17T20:38:28.452Z,1.40
2023-11-17T20:41:16.378Z,1.40
2023-11-17T20:44:03.599Z,1.36
2023-11-17T20:46:52.251Z,1.36
2023-11-17T20:49:40.088Z,1.41
2023-11-17T20:52:26.334Z,1.47
2023-11-17T20:55:13.783Z,1.50
2023-11-17T20:58:00.664Z,1.48
2023-11-17T21:00:48.541Z,1.45
2023-11-17T21:03:35.079Z,1.39
2023-11-17T21:06:23.762Z,1.38
2023-11-17T21:09:12.245Z,1.40
2023-11-17T21:11:58.972Z,1.40
2023-11-17T21:17:33.430Z,1.34
2023-11-17T21:20:19.214Z,1.39
2023-11-17T21:23:06.788Z,1.42
2023-11-17T21:25:56.885Z,1.49
2023-11-17T21:28:44.099Z,1.50
2023-11-17T21:31:36.557Z,1.55
2023-11-17T21:34:22.876Z,1.55
2023-11-17T21:37:09.334Z,1.49
2023-11-17T21:39:55.439Z,1.52
2023-11-17T21:42:48.555Z,1.54
2023-11-17T21:45:38.290Z,1.59
2023-11-17T21:48:27.895Z,1.50
2023-11-17T21:51:14.174Z,1.36
2023-11-17T21:54:01.494Z,1.33
2023-11-17T21:56:47.197Z,1.36
2023-11-17T21:59:34.150Z,1.23
2023-11-17T22:02:20.536Z,1.20
2023-11-17T22:05:07.696Z,1.19
2023-11-17T22:07:54.908Z,1.18
2023-11-17T22:10:41.444Z,1.27
2023-11-17T22:13:27.504Z,1.34
2023-11-17T22:16:14.091Z,1.35
2023-11-17T22:19:03.664Z,1.38
2023-11-17T22:21:51.778Z,1.32
2023-11-17T22:24:37.769Z,1.28
2023-11-17T22:27:24.265Z,1.23
2023-11-17T22:30:14.050Z,1.25
2023-11-17T22:33:01.111Z,1.19
2023-11-17T22:35:47.438Z,1.09
2023-11-17T22:38:34.162Z,1.07
2023-11-17T22:41:21.689Z,1.08
2023-11-17T22:44:08.821Z,1.04
2023-11-17T22:46:57.971Z,1.10
2023-11-17T22:49:44.103Z,1.17
2023-11-17T22:52:30.705Z,1.12
2023-11-17T22:55:16.978Z,1.12
2023-11-17T22:58:03.384Z,1.10
2023-11-17T23:00:49.756Z,1.18
2023-11-17T23:03:37.004Z,1.25
2023-11-17T23:06:24.392Z,1.25
2023-11-17T23:09:13.987Z,1.27
2023-11-17T23:12:00.172Z,1.33
2023-11-17T23:14:46.972Z,1.38
2023-11-17T23:17:34.273Z,1.36
2023-11-17T23:20:22.504Z,1.32
2023-11-17T23:23:09.013Z,1.39
2023-11-17T23:25:55.489Z,1.42
2023-11-17T23:28:41.887Z,1.33
2023-11-17T23:31:28.932Z,1.20
2023-11-17T23:34:17.376Z,1.12
2023-11-17T23:37:04.929Z,1.07
2023-11-17T23:39:51.048Z,1.11
2023-11-17T23:42:37.681Z,1.10
2023-11-17T23:45:23.519Z,1.06
2023-11-17T23:48:10.875Z,1.10
2023-11-17T23:50:57.286Z,1.13
2023-11-17T23:53:45.087Z,1.16
2023-11-17T23:56:31.521Z,1.18
2023-11-17T23:59:17.883Z,1.24
